Terminal Aerodrome Forecast
Issued by NWS

Home | Current Version | Previous Version | Text Only | Print | Product List | Glossary Off
Versions: 1 2 3 4 5 6 7 8 9 10 11 12 13 14 15 16 17 18 19 20 21

000
FTUS43 KIWX 150500
TAFSBN
TAF
KSBN 150524Z 1506/1606 18008KT 2SM BR OVC004
     FM151600 17008KT 5SM BR OVC015
     FM152000 16011KT 5SM -RA BR OVC020
     FM160000 14009KT 2SM -RA BR OVC009=

USA.gov is the U.S. government's official web portal to all federal, state and local government web resources and services.